Time;durP1;ratioP1;P1;durP2;ratioP2;P2;SDS_P1;SDS_P2;PMS_P1;PMS_P2;Temp;Humidity;BMP_temperature;BMP_pressure;BME280_temperature;BME280_humidity;BME280_pressure;Samples;Min_cycle;Max_cycle;Signal;HPM_P1;HPM_P2
2022/03/26 00:01:42;;;;;;;30.37;21.20;;;14.30;51.40;;;;;;5011672;28;20477;-84
2022/03/26 00:04:08;;;;;;;30.50;21.53;;;14.30;52.30;;;;;;5013229;28;20547;-83
2022/03/26 00:06:35;;;;;;;33.27;22.00;;;14.40;53.90;;;;;;5011333;28;20568;-83
2022/03/26 00:09:02;;;;;;;28.40;22.90;;;14.50;54.00;;;;;;5012238;28;20505;-84
2022/03/26 00:11:31;;;;;;;28.90;20.47;;;14.50;54.00;;;;;;5010624;28;20459;-84
2022/03/26 00:14:03;;;;;;;33.97;20.43;;;14.40;54.20;;;;;;5013335;28;20864;-84
2022/03/26 00:16:34;;;;;;;29.77;20.97;;;14.30;54.10;;;;;;5003720;28;20482;-84
2022/03/26 00:19:03;;;;;;;32.20;19.77;;;14.30;53.90;;;;;;5011612;28;20459;-84
2022/03/26 00:21:35;;;;;;;33.63;21.40;;;14.20;53.90;;;;;;5011985;28;20947;-83
2022/03/26 00:24:06;;;;;;;30.30;21.33;;;14.10;53.60;;;;;;5010284;28;20446;-83
2022/03/26 00:26:40;;;;;;;27.03;21.30;;;14.10;53.30;;;;;;5010347;28;20453;-83
2022/03/26 00:29:08;;;;;;;29.80;20.40;;;14.10;52.90;;;;;;5005312;28;20454;-83
2022/03/26 00:31:37;;;;;;;31.90;21.50;;;14.00;52.70;;;;;;5008712;28;20459;-84
2022/03/26 00:34:08;;;;;;;31.53;20.60;;;14.10;52.70;;;;;;5006523;28;20929;-83
2022/03/26 00:36:40;;;;;;;28.43;21.17;;;14.00;52.60;;;;;;5004747;28;20457;-82
2022/03/26 00:39:11;;;;;;;30.50;21.23;;;13.90;52.60;;;;;;5007723;28;20959;-81
2022/03/26 00:41:39;;;;;;;31.67;20.90;;;13.90;52.80;;;;;;5007563;28;20532;-81
2022/03/26 00:44:14;;;;;;;29.67;22.00;;;13.90;53.00;;;;;;5034968;28;20466;-83
2022/03/26 00:46:49;;;;;;;32.70;21.33;;;13.90;53.20;;;;;;5019309;28;20445;-83
2022/03/26 00:49:25;;;;;;;30.17;21.07;;;13.90;53.70;;;;;;5011610;28;20489;-83
2022/03/26 00:52:11;;;;;;;30.17;21.53;;;13.80;54.30;;;;;;5010671;28;20521;-84
2022/03/26 00:54:45;;;;;;;32.40;20.87;;;13.80;54.50;;;;;;5009952;28;20575;-83
2022/03/26 00:57:12;;;;;;;27.60;20.90;;;13.80;54.80;;;;;;5011570;28;20466;-85
2022/03/26 00:59:46;;;;;;;27.73;20.80;;;13.80;55.20;;;;;;5009332;28;20465;-84
2022/03/26 01:02:16;;;;;;;27.03;21.20;;;13.70;56.00;;;;;;5010442;28;20834;-84
2022/03/26 01:04:56;;;;;;;33.03;22.07;;;13.70;56.00;;;;;;5010884;28;20490;-84
2022/03/26 01:07:31;;;;;;;27.17;20.63;;;13.70;56.60;;;;;;5011979;28;20461;-83
2022/03/26 01:10:01;;;;;;;28.10;21.13;;;13.80;57.10;;;;;;5013399;28;20466;-83
2022/03/26 01:12:30;;;;;;;29.37;20.80;;;13.70;57.40;;;;;;5011395;28;20573;-84
2022/03/26 01:15:06;;;;;;;30.50;22.47;;;13.70;57.60;;;;;;5011765;28;20493;-83
2022/03/26 01:17:41;;;;;;;31.27;20.43;;;13.60;57.20;;;;;;5010593;28;20504;-84
2022/03/26 01:20:22;;;;;;;30.17;21.23;;;13.60;57.50;;;;;;5011274;28;20462;-84
2022/03/26 01:22:59;;;;;;;35.33;21.00;;;13.50;57.60;;;;;;5007720;28;20541;-84
2022/03/26 01:25:32;;;;;;;29.50;21.67;;;13.50;57.70;;;;;;5008475;28;21391;-85
2022/03/26 01:28:11;;;;;;;27.57;21.00;;;13.50;58.40;;;;;;5010200;28;20462;-84
2022/03/26 01:30:38;;;;;;;30.13;20.93;;;13.50;58.30;;;;;;5016289;28;20921;-84
2022/03/26 01:33:33;;;;;;;29.30;21.57;;;13.50;58.50;;;;;;5016004;28;20486;-84
2022/03/26 01:36:09;;;;;;;29.20;20.50;;;13.40;57.80;;;;;;5022692;28;20815;-82
2022/03/26 01:38:49;;;;;;;31.97;23.30;;;13.30;56.90;;;;;;5023056;28;20458;-84
2022/03/26 01:41:33;;;;;;;27.50;21.17;;;13.30;56.60;;;;;;5025601;28;20454;-83
2022/03/26 01:44:05;;;;;;;34.83;23.30;;;13.30;56.60;;;;;;5037830;28;20461;-82
2022/03/26 01:46:49;;;;;;;31.27;22.47;;;13.20;56.60;;;;;;5029138;28;20472;-83
2022/03/26 01:49:45;;;;;;;29.93;22.50;;;13.30;56.60;;;;;;5027495;28;20967;-83
2022/03/26 01:52:20;;;;;;;29.33;22.73;;;13.10;56.60;;;;;;5027980;28;20458;-84
2022/03/26 01:54:54;;;;;;;32.13;22.83;;;13.00;56.90;;;;;;5043981;28;20478;-85
2022/03/26 01:57:33;;;;;;;30.90;21.97;;;13.00;57.10;;;;;;5031158;28;20462;-84
2022/03/26 02:00:12;;;;;;;31.40;22.37;;;12.90;57.10;;;;;;5034331;28;20497;-83
2022/03/26 02:02:43;;;;;;;29.20;21.87;;;12.80;57.50;;;;;;5029042;28;20445;-84
2022/03/26 02:08:19;;;;;;;30.60;22.50;;;12.70;58.10;;;;;;5025300;28;20528;-83
2022/03/26 02:11:12;;;;;;;36.93;22.73;;;12.60;58.30;;;;;;5031747;28;20467;-84
2022/03/26 02:14:03;;;;;;;32.43;22.00;;;12.60;58.60;;;;;;5028697;28;20445;-83
2022/03/26 02:16:32;;;;;;;30.70;22.47;;;12.60;59.10;;;;;;5028835;28;20470;-82
2022/03/26 02:19:08;;;;;;;34.80;23.90;;;12.50;60.30;;;;;;5029673;28;20423;-85
2022/03/26 02:21:49;;;;;;;32.37;23.47;;;12.80;64.10;;;;;;5031996;28;20457;-83
2022/03/26 02:24:24;;;;;;;32.30;22.27;;;12.70;65.50;;;;;;5030377;28;20450;-85
2022/03/26 02:27:20;;;;;;;30.23;21.60;;;12.40;67.60;;;;;;5014492;28;20446;-82
2022/03/26 02:30:01;;;;;;;34.50;23.30;;;12.20;69.80;;;;;;5014728;28;20466;-84
2022/03/26 02:32:35;;;;;;;31.57;24.53;;;12.10;71.20;;;;;;5011702;28;20454;-85
2022/03/26 02:35:16;;;;;;;35.40;24.17;;;12.10;72.40;;;;;;5014358;28;20494;-83
2022/03/26 02:37:54;;;;;;;32.00;22.03;;;12.00;72.70;;;;;;5019540;28;20516;-84
2022/03/26 02:40:36;;;;;;;31.30;23.40;;;12.00;73.50;;;;;;5015593;28;20451;-84
2022/03/26 02:43:32;;;;;;;34.60;23.67;;;12.20;73.60;;;;;;5031259;28;20483;-83
2022/03/26 02:46:10;;;;;;;33.23;24.13;;;12.00;74.00;;;;;;5029723;28;20956;-83
2022/03/26 02:48:54;;;;;;;26.00;21.43;;;12.00;74.70;;;;;;5033637;28;20478;-83
2022/03/26 02:51:27;;;;;;;27.10;22.13;;;12.00;75.10;;;;;;5046541;28;20468;-81
2022/03/26 02:54:21;;;;;;;29.50;24.20;;;12.20;75.80;;;;;;5033522;28;20457;-81
2022/03/26 02:57:02;;;;;;;30.30;22.23;;;12.00;74.80;;;;;;5032641;28;20451;-84
2022/03/26 03:00:04;;;;;;;;;;;;;;;;;;;;;
2022/03/26 03:03:10;;;;;;;32.90;22.40;;;12.00;76.40;;;;;;5034894;28;20478;-85
2022/03/26 03:05:53;;;;;;;28.33;21.97;;;12.00;77.20;;;;;;5025023;28;20465;-85
2022/03/26 03:08:25;;;;;;;29.27;21.43;;;11.80;78.20;;;;;;5034979;28;20434;-85
2022/03/26 03:10:55;;;;;;;26.97;22.27;;;11.80;78.70;;;;;;5042754;28;20438;-84
2022/03/26 03:13:39;;;;;;;29.97;22.27;;;11.80;78.00;;;;;;5029212;28;20570;-84
2022/03/26 03:16:18;;;;;;;33.80;22.43;;;11.90;77.70;;;;;;5020326;28;20486;-83
2022/03/26 03:19:36;;;;;;;33.10;21.80;;;11.80;78.80;;;;;;5013264;28;20506;-83
2022/03/26 03:22:26;;;;;;;34.70;22.50;;;11.70;80.80;;;;;;5021157;28;20485;-84
2022/03/26 03:25:26;;;;;;;27.93;21.50;;;11.80;82.50;;;;;;5014088;28;20519;-84
2022/03/26 03:28:14;;;;;;;32.13;24.03;;;12.00;83.90;;;;;;5004549;28;20458;-84
2022/03/26 03:31:19;;;;;;;31.87;23.93;;;11.90;83.70;;;;;;5027698;28;20458;-84
2022/03/26 03:33:57;;;;;;;33.90;22.97;;;11.80;84.40;;;;;;5014945;28;20458;-84
2022/03/26 03:36:34;;;;;;;33.07;22.00;;;11.60;84.70;;;;;;5012690;28;20482;-84
2022/03/26 03:39:09;;;;;;;33.23;22.67;;;11.60;84.20;;;;;;5013329;28;20462;-84
2022/03/26 03:42:09;;;;;;;30.80;22.87;;;11.50;83.70;;;;;;4935467;29;20446;-85
2022/03/26 03:44:55;;;;;;;30.37;21.83;;;11.50;82.90;;;;;;4932778;29;20492;-84
2022/03/26 03:47:46;;;;;;;35.00;22.77;;;11.50;83.20;;;;;;4932297;29;20457;-85
2022/03/26 03:50:25;;;;;;;39.10;22.63;;;11.30;84.60;;;;;;4940184;29;20453;-84
2022/03/26 03:53:03;;;;;;;35.23;21.70;;;11.30;85.30;;;;;;4938215;29;20460;-85
2022/03/26 03:55:33;;;;;;;30.90;21.60;;;11.30;85.30;;;;;;4942618;29;20606;-85
2022/03/26 03:58:32;;;;;;;33.23;22.60;;;11.30;85.00;;;;;;4922467;29;20845;-85
2022/03/26 04:01:31;;;;;;;;;;;;;;;;;;;;;
2022/03/26 04:04:02;;;;;;;28.83;22.00;;;11.40;83.60;;;;;;4935118;29;21057;-84
2022/03/26 04:06:41;;;;;;;38.73;24.00;;;11.30;82.70;;;;;;4935805;29;20494;-84
2022/03/26 04:09:27;;;;;;;33.00;22.10;;;11.30;83.20;;;;;;4917941;29;20466;-83
2022/03/26 04:11:58;;;;;;;29.90;20.90;;;11.40;83.60;;;;;;4932577;29;20470;-84
2022/03/26 04:14:43;;;;;;;29.43;20.00;;;11.30;84.20;;;;;;4936978;29;20525;-83
2022/03/26 04:17:18;;;;;;;27.27;20.57;;;11.10;84.90;;;;;;4935491;29;20489;-85
2022/03/26 04:19:59;;;;;;;31.10;22.90;;;11.10;85.50;;;;;;4998588;28;20468;-84
2022/03/26 04:22:40;;;;;;;29.97;18.73;;;11.10;86.20;;;;;;5014880;28;20460;-84
2022/03/26 04:25:22;;;;;;;29.93;21.23;;;11.10;87.00;;;;;;5024387;28;20470;-82
2022/03/26 04:28:01;;;;;;;31.40;21.80;;;11.00;86.60;;;;;;5032512;28;20454;-83
2022/03/26 04:30:46;;;;;;;34.80;21.00;;;11.00;86.50;;;;;;5009439;28;20451;-85
2022/03/26 04:33:37;;;;;;;30.10;21.23;;;11.00;86.70;;;;;;5009980;28;20482;-85
2022/03/26 04:36:21;;;;;;;37.40;21.00;;;11.10;86.80;;;;;;5025804;28;20516;-85
2022/03/26 04:39:19;;;;;;;30.90;19.90;;;11.20;87.30;;;;;;5019956;28;20462;-86
2022/03/26 04:41:59;;;;;;;26.63;21.13;;;11.10;86.00;;;;;;5024781;28;20470;-86
2022/03/26 04:44:37;;;;;;;31.33;21.03;;;11.00;85.80;;;;;;5031623;28;20504;-85
2022/03/26 04:47:08;;;;;;;35.37;20.50;;;11.00;86.80;;;;;;5031044;28;20553;-85
2022/03/26 04:49:52;;;;;;;28.37;20.00;;;10.90;89.00;;;;;;5029133;28;20469;-84
2022/03/26 04:52:29;;;;;;;27.30;19.90;;;10.80;90.10;;;;;;5031396;28;20529;-83
2022/03/26 04:55:23;;;;;;;29.43;20.50;;;10.70;90.30;;;;;;5022812;28;20470;-82
2022/03/26 04:58:23;;;;;;;30.70;20.10;;;10.80;91.20;;;;;;5019706;28;20489;-81
2022/03/26 05:01:05;;;;;;;27.80;20.20;;;10.80;91.50;;;;;;5022650;28;20454;-82
2022/03/26 05:03:51;;;;;;;27.10;17.20;;;10.80;91.70;;;;;;5031021;28;20458;-84
2022/03/26 05:06:28;;;;;;;29.27;18.60;;;10.90;89.60;;;;;;5010350;28;20492;-84
2022/03/26 05:08:59;;;;;;;24.57;17.70;;;11.00;85.20;;;;;;5018455;28;20462;-84
2022/03/26 05:11:50;;;;;;;22.83;17.27;;;10.80;84.10;;;;;;5018995;28;20482;-83
2022/03/26 05:14:31;;;;;;;28.33;17.17;;;10.90;81.30;;;;;;5023447;28;20455;-83
2022/03/26 05:16:59;;;;;;;27.07;18.03;;;10.80;80.60;;;;;;5009668;28;20508;-82
2022/03/26 05:19:32;;;;;;;20.87;16.00;;;10.60;80.90;;;;;;5010346;28;20458;-81
2022/03/26 05:22:12;;;;;;;30.63;18.13;;;10.60;80.30;;;;;;5009990;28;20481;-83
2022/03/26 05:24:50;;;;;;;21.73;15.23;;;10.50;79.90;;;;;;5018518;28;20462;-84
2022/03/26 05:27:24;;;;;;;22.20;15.87;;;10.30;80.80;;;;;;5027518;28;20481;-83
2022/03/26 05:29:56;;;;;;;23.03;16.10;;;10.50;79.70;;;;;;5024621;28;20454;-84
2022/03/26 05:32:40;;;;;;;22.30;16.00;;;10.50;77.90;;;;;;5012083;28;20966;-83
2022/03/26 05:35:16;;;;;;;23.40;16.93;;;10.50;77.60;;;;;;5010019;28;20474;-83
2022/03/26 05:37:53;;;;;;;24.43;17.70;;;10.40;78.30;;;;;;5025825;28;20458;-83
2022/03/26 05:40:23;;;;;;;22.60;17.17;;;10.40;79.10;;;;;;5010397;28;21038;-82
2022/03/26 05:42:54;;;;;;;22.30;15.23;;;10.30;78.20;;;;;;5009193;28;20478;-84
2022/03/26 05:45:29;;;;;;;21.30;14.47;;;10.20;78.20;;;;;;5010577;28;20478;-84
2022/03/26 05:48:02;;;;;;;22.33;15.47;;;10.00;77.90;;;;;;5009060;28;20512;-83
2022/03/26 05:50:40;;;;;;;23.27;16.03;;;10.10;77.70;;;;;;5012432;28;20446;-84
2022/03/26 05:53:20;;;;;;;22.60;16.27;;;10.20;77.70;;;;;;5017820;28;20450;-83
2022/03/26 05:55:59;;;;;;;23.40;15.90;;;10.20;78.30;;;;;;5020269;28;20486;-85
2022/03/26 05:58:41;;;;;;;23.73;14.97;;;10.20;78.40;;;;;;5014280;28;20584;-85
2022/03/26 06:01:16;;;;;;;21.67;15.10;;;10.20;78.60;;;;;;5012862;28;20481;-84
2022/03/26 06:03:54;;;;;;;23.23;16.27;;;10.10;78.20;;;;;;5011630;28;20473;-84
2022/03/26 06:06:25;;;;;;;21.70;16.27;;;10.10;77.70;;;;;;5018782;28;20486;-85
2022/03/26 06:08:57;;;;;;;21.00;14.90;;;10.10;77.10;;;;;;5014963;28;20458;-83
2022/03/26 06:11:27;;;;;;;22.93;15.20;;;10.40;75.80;;;;;;5012940;28;20875;-84
2022/03/26 06:14:08;;;;;;;22.10;14.90;;;10.80;74.30;;;;;;5030047;28;20461;-83
2022/03/26 06:16:48;;;;;;;22.63;15.23;;;11.00;73.80;;;;;;5009666;28;20524;-84
2022/03/26 06:19:22;;;;;;;21.50;15.50;;;11.60;74.40;;;;;;5021945;28;20458;-84
2022/03/26 06:22:02;;;;;;;24.13;15.40;;;12.60;72.20;;;;;;5013474;28;20463;-83
2022/03/26 06:24:34;;;;;;;20.60;15.00;;;13.60;66.80;;;;;;5016354;28;20477;-83
2022/03/26 06:27:06;;;;;;;20.50;14.73;;;14.50;63.00;;;;;;5015193;28;20458;-85
2022/03/26 06:29:43;;;;;;;22.60;16.47;;;15.10;59.50;;;;;;5014411;28;20493;-83
2022/03/26 06:32:24;;;;;;;27.53;16.13;;;15.50;58.10;;;;;;5015522;28;20470;-83
2022/03/26 06:35:08;;;;;;;21.60;16.00;;;15.90;56.80;;;;;;5014201;28;21050;-84
2022/03/26 06:37:43;;;;;;;22.23;16.47;;;16.30;55.90;;;;;;5013209;28;21031;-82
2022/03/26 06:40:13;;;;;;;24.13;16.13;;;16.60;55.50;;;;;;5017685;28;20509;-85
2022/03/26 06:43:02;;;;;;;20.87;15.90;;;17.00;54.20;;;;;;5011865;28;20454;-83
2022/03/26 06:45:38;;;;;;;23.27;18.07;;;16.80;53.10;;;;;;5012133;28;20480;-84
2022/03/26 06:48:18;;;;;;;21.90;15.70;;;15.80;54.20;;;;;;5027715;28;20889;-83
2022/03/26 06:50:49;;;;;;;23.43;16.63;;;15.80;54.80;;;;;;5013216;28;20458;-84
2022/03/26 06:53:35;;;;;;;21.20;15.27;;;15.80;54.10;;;;;;5013083;28;20462;-85
2022/03/26 06:56:19;;;;;;;28.47;16.47;;;14.30;55.20;;;;;;5025752;28;20481;-83
2022/03/26 06:58:55;;;;;;;20.97;16.27;;;13.00;57.90;;;;;;5009138;28;20589;-84
2022/03/26 07:01:25;;;;;;;23.67;16.80;;;12.20;60.70;;;;;;5014203;28;20488;-84
2022/03/26 07:03:52;;;;;;;22.80;16.67;;;12.40;64.30;;;;;;5011628;28;20458;-84
2022/03/26 07:06:19;;;;;;;22.30;15.90;;;14.00;61.60;;;;;;5011357;28;20485;-84
2022/03/26 07:08:46;;;;;;;21.10;15.97;;;15.40;58.10;;;;;;5002192;28;20991;-83
2022/03/26 07:11:13;;;;;;;22.10;15.23;;;16.70;55.50;;;;;;5006806;28;20476;-83
2022/03/26 07:13:40;;;;;;;20.77;15.30;;;17.30;52.60;;;;;;5015438;28;20458;-83
2022/03/26 07:16:07;;;;;;;24.27;17.30;;;16.00;52.50;;;;;;5018805;28;20502;-84
2022/03/26 07:18:35;;;;;;;21.10;15.70;;;14.40;54.90;;;;;;5009463;28;20458;-84
2022/03/26 07:21:02;;;;;;;25.80;17.03;;;13.20;57.70;;;;;;5034355;28;20846;-82
2022/03/26 07:23:29;;;;;;;26.03;17.80;;;12.50;59.90;;;;;;5010155;28;20454;-82
2022/03/26 07:25:56;;;;;;;24.67;16.30;;;12.50;62.10;;;;;;5013809;28;20474;-82
2022/03/26 07:28:23;;;;;;;21.10;17.03;;;14.00;62.40;;;;;;5010309;28;20455;-84
2022/03/26 07:30:50;;;;;;;23.67;16.47;;;16.20;56.80;;;;;;5017523;28;20466;-83
2022/03/26 07:33:17;;;;;;;24.00;17.60;;;18.00;52.60;;;;;;5016080;28;20601;-83
2022/03/26 07:35:44;;;;;;;25.17;16.83;;;19.00;50.20;;;;;;5012604;28;21114;-84
2022/03/26 07:38:12;;;;;;;21.17;15.90;;;19.60;48.70;;;;;;5014543;28;20465;-83
2022/03/26 07:40:41;;;;;;;23.23;17.53;;;19.80;47.40;;;;;;5009040;28;20478;-85
2022/03/26 07:43:11;;;;;;;25.50;18.13;;;20.10;47.10;;;;;;5013395;28;20480;-84
2022/03/26 07:45:40;;;;;;;20.97;16.37;;;20.30;46.50;;;;;;5011633;28;20888;-84
2022/03/26 07:48:17;;;;;;;24.80;18.10;;;20.60;45.90;;;;;;5010964;28;21133;-84
2022/03/26 07:50:51;;;;;;;21.03;17.17;;;20.80;45.60;;;;;;5008189;28;20533;-84
2022/03/26 07:53:29;;;;;;;20.13;16.20;;;21.10;45.00;;;;;;5007727;28;20554;-83
2022/03/26 07:56:08;;;;;;;23.10;17.60;;;21.20;44.30;;;;;;5009955;28;20586;-84
2022/03/26 07:58:42;;;;;;;21.90;16.67;;;21.00;44.20;;;;;;5009932;28;20450;-84
2022/03/26 08:01:12;;;;;;;24.43;17.57;;;20.80;44.40;;;;;;5012001;28;20466;-84
2022/03/26 08:03:53;;;;;;;25.73;20.20;;;21.00;44.60;;;;;;5006128;28;20788;-84
2022/03/26 08:06:24;;;;;;;26.13;19.03;;;21.00;43.90;;;;;;5010282;28;20490;-84
2022/03/26 08:08:51;;;;;;;21.10;18.37;;;21.20;44.00;;;;;;5008395;28;20493;-84
2022/03/26 08:11:28;;;;;;;23.43;18.03;;;21.50;43.70;;;;;;5012650;28;20463;-84
2022/03/26 08:13:57;;;;;;;21.87;18.40;;;21.70;43.10;;;;;;5009434;28;20472;-84
2022/03/26 08:16:27;;;;;;;22.27;18.13;;;21.80;42.50;;;;;;5012075;28;20894;-86
2022/03/26 08:19:02;;;;;;;23.93;17.90;;;21.70;42.20;;;;;;5009181;28;20462;-84
2022/03/26 08:21:43;;;;;;;27.83;18.50;;;21.90;41.90;;;;;;5004318;28;20525;-85
2022/03/26 08:24:12;;;;;;;26.87;19.30;;;22.00;41.10;;;;;;5009972;28;20455;-85
2022/03/26 08:26:39;;;;;;;26.40;18.87;;;21.40;41.30;;;;;;5012126;28;20458;-84
2022/03/26 08:29:09;;;;;;;24.23;18.67;;;20.60;42.00;;;;;;5004773;28;20501;-85
2022/03/26 08:31:49;;;;;;;30.53;20.90;;;19.10;43.50;;;;;;5010901;28;20490;-85
2022/03/26 08:34:20;;;;;;;25.80;17.87;;;17.40;45.70;;;;;;5017975;28;20467;-83
2022/03/26 08:36:47;;;;;;;29.53;21.13;;;16.30;48.20;;;;;;5017761;28;20545;-85
2022/03/26 08:39:17;;;;;;;27.20;19.97;;;15.50;50.10;;;;;;5011812;28;20463;-85
2022/03/26 08:41:52;;;;;;;28.00;20.43;;;15.30;51.70;;;;;;5028439;28;20458;-84
2022/03/26 08:44:19;;;;;;;26.47;18.80;;;15.20;52.40;;;;;;5012497;28;20458;-84
2022/03/26 08:46:51;;;;;;;23.53;18.50;;;15.00;52.60;;;;;;5011827;28;20461;-84
2022/03/26 08:49:24;;;;;;;25.40;18.70;;;14.80;53.20;;;;;;5009899;28;20909;-84
2022/03/26 08:51:56;;;;;;;27.80;18.70;;;14.70;53.50;;;;;;5013544;28;20450;-82
2022/03/26 08:54:23;;;;;;;28.53;18.63;;;14.60;54.00;;;;;;5010773;28;20468;-83
2022/03/26 08:56:58;;;;;;;25.40;18.20;;;14.70;54.40;;;;;;5010863;28;20593;-84
2022/03/26 08:59:25;;;;;;;28.77;20.50;;;14.70;54.70;;;;;;5009155;28;20636;-85
2022/03/26 09:01:54;;;;;;;29.63;19.80;;;14.60;54.80;;;;;;5010898;28;20454;-85
2022/03/26 09:04:24;;;;;;;29.13;18.90;;;14.50;54.70;;;;;;5004373;28;20548;-85
2022/03/26 09:06:50;;;;;;;26.80;18.70;;;14.40;55.00;;;;;;5020518;28;20465;-84
2022/03/26 09:09:17;;;;;;;34.43;20.30;;;14.40;55.30;;;;;;5018922;28;21269;-84
2022/03/26 09:11:45;;;;;;;28.47;20.30;;;14.50;55.30;;;;;;5006923;28;20835;-85
2022/03/26 09:14:13;;;;;;;26.37;19.50;;;14.60;55.60;;;;;;5007036;28;21081;-85
2022/03/26 09:16:41;;;;;;;27.50;19.90;;;14.60;55.40;;;;;;5009624;28;20479;-85
2022/03/26 09:19:12;;;;;;;22.83;18.00;;;14.70;55.60;;;;;;5009004;28;20462;-84
2022/03/26 09:21:41;;;;;;;31.20;20.33;;;14.80;55.50;;;;;;5010138;28;20438;-85
2022/03/26 09:24:11;;;;;;;33.87;21.10;;;14.80;55.20;;;;;;5018681;28;20450;-84
2022/03/26 09:26:41;;;;;;;30.63;19.87;;;15.00;54.80;;;;;;5016773;28;20478;-84
2022/03/26 09:29:12;;;;;;;28.27;20.90;;;15.10;54.40;;;;;;5014186;28;20531;-84
2022/03/26 09:31:44;;;;;;;31.07;21.33;;;15.20;54.20;;;;;;5015583;28;20458;-85
2022/03/26 09:34:11;;;;;;;35.03;21.10;;;15.30;53.70;;;;;;5013232;28;20458;-85
2022/03/26 09:36:44;;;;;;;29.23;21.33;;;15.40;53.40;;;;;;5014056;28;21015;-83
2022/03/26 09:39:14;;;;;;;34.27;20.83;;;15.50;53.30;;;;;;5012822;28;20454;-84
2022/03/26 09:41:41;;;;;;;29.50;22.47;;;15.60;52.80;;;;;;5014065;28;20460;-84
2022/03/26 09:44:15;;;;;;;31.83;20.80;;;15.60;52.80;;;;;;5013820;28;20485;-84
2022/03/26 09:46:45;;;;;;;30.60;22.20;;;15.70;52.30;;;;;;5010215;28;20462;-84
2022/03/26 09:49:15;;;;;;;31.73;21.97;;;15.90;52.70;;;;;;5014177;28;20469;-84
2022/03/26 09:51:45;;;;;;;40.30;25.30;;;16.50;52.30;;;;;;5016596;28;20458;-83
2022/03/26 09:54:16;;;;;;;34.00;21.33;;;17.70;50.40;;;;;;5009929;28;20561;-84
2022/03/26 09:56:46;;;;;;;29.20;23.03;;;19.40;47.80;;;;;;5011495;28;20652;-83
2022/03/26 09:59:31;;;;;;;29.67;23.60;;;20.80;44.80;;;;;;5014996;28;20474;-84
2022/03/26 10:02:02;;;;;;;31.37;24.27;;;21.30;43.60;;;;;;5007764;28;20462;-82
2022/03/26 10:04:40;;;;;;;27.13;22.90;;;22.30;41.50;;;;;;5009699;28;20517;-83
2022/03/26 10:07:10;;;;;;;34.63;24.50;;;23.10;39.70;;;;;;5010252;28;20469;-84
2022/03/26 10:09:48;;;;;;;30.33;25.53;;;23.40;38.80;;;;;;5024469;28;20454;-84
2022/03/26 10:12:28;;;;;;;31.20;21.47;;;23.60;38.30;;;;;;5011449;28;20592;-84
2022/03/26 10:15:04;;;;;;;27.73;23.23;;;24.20;37.60;;;;;;5010602;28;20570;-82
2022/03/26 10:17:36;;;;;;;29.97;23.13;;;24.40;37.10;;;;;;5010880;28;20481;-85
2022/03/26 10:20:10;;;;;;;26.33;21.50;;;24.60;36.80;;;;;;5009948;28;20462;-84
2022/03/26 10:22:48;;;;;;;33.57;22.60;;;24.70;36.40;;;;;;5012249;28;20649;-85
2022/03/26 10:25:19;;;;;;;33.23;23.73;;;24.70;36.60;;;;;;5010395;28;20465;-84
2022/03/26 10:27:48;;;;;;;25.90;22.00;;;24.70;36.50;;;;;;5013447;28;20480;-82
2022/03/26 10:33:19;;;;;;;31.23;24.80;;;24.60;36.80;;;;;;5014973;28;20452;-85
2022/03/26 10:35:56;;;;;;;30.43;23.67;;;25.00;36.00;;;;;;5011325;28;20478;-84
2022/03/26 10:38:39;;;;;;;32.90;24.10;;;25.20;36.00;;;;;;5014453;28;20572;-84
2022/03/26 10:41:13;;;;;;;29.10;24.10;;;24.60;36.30;;;;;;5011639;28;20462;-84
2022/03/26 10:43:42;;;;;;;29.80;24.70;;;24.30;36.90;;;;;;5007770;28;20963;-83
2022/03/26 10:46:46;;;;;;;30.30;23.97;;;23.90;37.60;;;;;;5009353;28;20470;-82
2022/03/26 10:49:31;;;;;;;28.40;23.10;;;25.20;36.00;;;;;;5007855;28;20573;-85
2022/03/26 10:52:14;;;;;;;27.47;22.47;;;25.40;35.40;;;;;;5012887;28;20453;-84
2022/03/26 10:54:47;;;;;;;26.47;23.60;;;26.10;34.30;;;;;;5012481;28;20478;-82
2022/03/26 10:57:24;;;;;;;25.57;23.00;;;25.60;34.30;;;;;;5013789;28;20482;-83
2022/03/26 10:59:54;;;;;;;29.50;22.50;;;25.50;34.40;;;;;;5008797;28;20466;-83
2022/03/26 11:02:24;;;;;;;27.33;24.53;;;25.80;34.60;;;;;;5012497;28;20455;-85
2022/03/26 11:05:00;;;;;;;27.40;24.50;;;26.20;33.70;;;;;;5011432;28;20544;-83
2022/03/26 11:07:41;;;;;;;30.30;23.70;;;25.70;34.00;;;;;;5010947;28;20824;-83
2022/03/26 11:10:36;;;;;;;29.83;23.70;;;25.40;34.70;;;;;;5013707;28;21045;-85
2022/03/26 11:13:14;;;;;;;27.90;22.80;;;24.90;35.20;;;;;;5014734;28;20466;-86
2022/03/26 11:15:51;;;;;;;25.83;23.10;;;25.50;34.80;;;;;;5009079;28;21003;-83
2022/03/26 11:18:43;;;;;;;25.57;22.77;;;25.00;34.40;;;;;;5022379;28;20512;-83
2022/03/26 11:21:49;;;;;;;26.60;22.57;;;24.10;35.60;;;;;;5015349;28;20508;-83
2022/03/26 11:24:49;;;;;;;32.30;24.80;;;24.20;36.10;;;;;;5010340;28;20460;-84
2022/03/26 11:27:48;;;;;;;27.07;23.77;;;24.10;36.30;;;;;;5024879;28;20461;-85
2022/03/26 11:30:38;;;;;;;26.83;22.73;;;24.80;36.10;;;;;;5010193;28;20450;-81
2022/03/26 11:33:17;;;;;;;27.83;23.00;;;24.80;35.40;;;;;;5011221;28;20466;-82
2022/03/26 11:35:59;;;;;;;24.00;21.27;;;25.30;35.70;;;;;;4994546;28;20516;-83
2022/03/26 11:38:36;;;;;;;27.40;24.60;;;26.50;34.00;;;;;;4993427;28;21226;-83
2022/03/26 11:41:08;;;;;;;27.07;24.17;;;25.80;33.60;;;;;;4995667;28;20464;-83
2022/03/26 11:43:44;;;;;;;26.67;22.97;;;24.40;35.30;;;;;;5019398;28;20452;-84
2022/03/26 11:53:37;;;;;;;26.50;23.70;;;24.60;35.80;;;;;;5006006;28;20960;-83
2022/03/26 11:56:19;;;;;;;30.53;23.37;;;24.40;35.80;;;;;;5005900;28;20541;-82
2022/03/26 11:59:20;;;;;;;27.67;21.87;;;24.80;36.10;;;;;;5003203;28;20482;-85
2022/03/26 12:02:16;;;;;;;24.10;21.47;;;25.00;35.40;;;;;;5006060;28;20496;-83
2022/03/26 12:04:56;;;;;;;23.20;20.70;;;25.40;35.20;;;;;;5007484;28;21343;-83
2022/03/26 12:07:29;;;;;;;24.20;21.10;;;26.60;33.10;;;;;;5025223;28;20462;-83
2022/03/26 12:10:32;;;;;;;27.90;23.30;;;25.70;33.50;;;;;;5013202;28;20566;-84
2022/03/26 12:13:09;;;;;;;23.20;20.40;;;24.90;34.70;;;;;;4998913;28;20465;-84
2022/03/26 12:15:39;;;;;;;23.00;20.60;;;24.70;35.10;;;;;;5007255;28;20482;-83
2022/03/26 12:18:12;;;;;;;24.77;19.33;;;24.90;34.90;;;;;;5008103;28;20528;-84
2022/03/26 12:20:47;;;;;;;21.93;19.73;;;24.70;34.90;;;;;;5005755;28;20505;-85
2022/03/26 12:23:15;;;;;;;21.77;19.53;;;24.60;35.00;;;;;;5015412;28;20992;-82
2022/03/26 12:25:51;;;;;;;19.57;17.77;;;24.50;34.90;;;;;;5014260;28;20960;-84
2022/03/26 12:28:42;;;;;;;22.33;17.20;;;24.50;35.10;;;;;;5014472;28;20485;-83
2022/03/26 12:31:17;;;;;;;16.13;13.43;;;24.30;34.40;;;;;;5007829;28;20712;-83
2022/03/26 12:33:45;;;;;;;20.87;14.53;;;25.80;33.10;;;;;;5014205;28;20504;-83
2022/03/26 12:36:19;;;;;;;17.77;13.87;;;26.00;32.40;;;;;;5036029;28;20473;-82
2022/03/26 12:38:50;;;;;;;15.50;12.07;;;26.40;31.90;;;;;;5028020;28;20474;-83
2022/03/26 12:41:19;;;;;;;15.47;10.93;;;26.20;31.10;;;;;;5016743;28;20462;-82
2022/03/26 12:43:57;;;;;;;16.07;11.30;;;25.50;32.00;;;;;;5005589;28;20454;-83
2022/03/26 12:46:38;;;;;;;12.83;10.83;;;25.90;31.70;;;;;;5011284;28;20497;-83
2022/03/26 12:49:16;;;;;;;13.37;10.13;;;25.90;31.00;;;;;;5020737;28;20453;-82
2022/03/26 12:51:44;;;;;;;15.90;11.33;;;26.00;32.10;;;;;;5018953;28;21290;-81
2022/03/26 12:54:13;;;;;;;16.53;11.33;;;25.90;32.40;;;;;;5010309;28;20458;-82
2022/03/26 12:56:41;;;;;;;12.73;10.30;;;26.30;31.50;;;;;;5004840;28;20462;-84
2022/03/26 12:59:12;;;;;;;14.10;9.07;;;26.20;31.60;;;;;;5016603;28;20460;-82
2022/03/26 13:01:44;;;;;;;11.83;9.70;;;25.60;32.70;;;;;;5015558;28;20518;-84
2022/03/26 13:04:17;;;;;;;13.27;10.63;;;25.70;32.80;;;;;;4997854;28;20462;-84
2022/03/26 13:06:53;;;;;;;13.03;10.20;;;25.50;33.30;;;;;;5002490;28;21048;-83
2022/03/26 13:09:29;;;;;;;14.07;10.80;;;26.10;33.00;;;;;;5001132;28;20450;-83
2022/03/26 13:12:02;;;;;;;13.30;9.87;;;25.40;33.20;;;;;;5003426;28;20828;-81
2022/03/26 13:14:29;;;;;;;17.50;10.17;;;25.20;33.70;;;;;;5001589;28;20907;-84
2022/03/26 13:16:58;;;;;;;13.03;10.47;;;25.60;33.90;;;;;;4999593;28;20482;-83
2022/03/26 13:19:32;;;;;;;13.60;10.17;;;26.60;32.20;;;;;;4999337;28;20485;-81
2022/03/26 13:22:02;;;;;;;15.27;11.30;;;26.40;32.20;;;;;;5002481;28;20464;-83
2022/03/26 13:24:29;;;;;;;13.37;10.93;;;26.60;32.00;;;;;;5007499;28;20553;-82
2022/03/26 13:27:03;;;;;;;13.60;12.13;;;26.10;32.40;;;;;;5001693;28;20651;-83
2022/03/26 13:29:35;;;;;;;16.10;12.80;;;26.60;32.90;;;;;;5015957;28;21044;-81